createdAt,value
2018-01-15T00:00:52.376Z,18.00
2018-01-15T00:01:53.081Z,19.00
2018-01-15T00:02:53.785Z,14.00
2018-01-15T00:03:54.488Z,19.00
2018-01-15T00:04:55.192Z,19.00
2018-01-15T00:05:55.895Z,18.00
2018-01-15T00:06:56.614Z,19.00
2018-01-15T00:07:57.318Z,17.00
2018-01-15T00:08:58.024Z,18.00
2018-01-15T00:09:58.726Z,20.00
2018-01-15T00:10:59.430Z,17.00
2018-01-15T00:12:00.133Z,18.00
2018-01-15T00:13:00.838Z,24.00
2018-01-15T00:14:01.552Z,20.00
2018-01-15T00:15:02.255Z,17.00
2018-01-15T00:16:02.958Z,20.00
2018-01-15T00:17:03.662Z,15.00
2018-01-15T00:18:04.366Z,20.00
2018-01-15T00:19:05.085Z,19.00
2018-01-15T00:20:05.784Z,17.00
2018-01-15T00:21:06.487Z,19.00
2018-01-15T00:22:07.192Z,21.00
2018-01-15T00:23:07.894Z,17.00
2018-01-15T00:24:08.597Z,16.00
2018-01-15T00:25:09.298Z,19.00
2018-01-15T00:26:10.005Z,18.00
2018-01-15T00:27:10.705Z,16.00
2018-01-15T00:28:11.409Z,18.00
2018-01-15T00:29:12.113Z,17.00
2018-01-15T00:30:12.815Z,17.00
2018-01-15T00:31:13.518Z,20.00
2018-01-15T00:32:14.220Z,19.00
2018-01-15T00:33:14.923Z,18.00
2018-01-15T00:34:15.626Z,16.00
2018-01-15T00:35:16.329Z,16.00
2018-01-15T00:36:17.032Z,21.00
2018-01-15T00:37:17.735Z,17.00
2018-01-15T00:38:18.451Z,18.00
2018-01-15T00:39:19.155Z,15.00
2018-01-15T00:40:19.858Z,19.00
2018-01-15T00:41:20.562Z,20.00
2018-01-15T00:42:21.269Z,21.00
2018-01-15T00:43:21.970Z,18.00
2018-01-15T00:44:22.672Z,19.00
2018-01-15T00:45:23.626Z,19.00
2018-01-15T00:46:24.333Z,17.00
2018-01-15T00:47:25.034Z,19.00
2018-01-15T00:48:25.750Z,17.00
2018-01-15T00:49:26.452Z,17.00
2018-01-15T00:50:27.406Z,22.00
2018-01-15T00:51:28.109Z,21.00
2018-01-15T00:52:28.812Z,16.00
2018-01-15T00:53:29.514Z,20.00
2018-01-15T00:54:30.230Z,20.00
2018-01-15T00:55:30.934Z,18.00
2018-01-15T00:56:31.638Z,20.00
2018-01-15T00:57:32.341Z,18.00
2018-01-15T00:58:33.046Z,15.00
2018-01-15T00:59:33.764Z,19.00
2018-01-15T01:00:34.468Z,17.00
2018-01-15T01:01:35.173Z,20.00
2018-01-15T01:02:35.875Z,21.00
2018-01-15T01:03:36.580Z,19.00
2018-01-15T01:04:37.283Z,21.00
2018-01-15T01:05:37.988Z,19.00
2018-01-15T01:06:38.691Z,20.00
2018-01-15T01:07:39.394Z,20.00
2018-01-15T01:08:40.111Z,20.00
2018-01-15T01:09:40.814Z,20.00
2018-01-15T01:10:41.519Z,19.00
2018-01-15T01:11:42.221Z,21.00
2018-01-15T01:12:42.925Z,17.00
2018-01-15T01:13:43.628Z,16.00
2018-01-15T01:14:44.333Z,22.00
2018-01-15T01:15:45.036Z,19.00
2018-01-15T01:16:45.744Z,16.00
2018-01-15T01:17:46.442Z,17.00
2018-01-15T01:18:47.165Z,18.00
2018-01-15T01:19:47.878Z,18.00
2018-01-15T01:20:48.593Z,16.00
2018-01-15T01:21:49.311Z,24.00
2018-01-15T01:22:50.016Z,19.00
2018-01-15T01:23:50.733Z,21.00
2018-01-15T01:24:51.447Z,18.00
2018-01-15T01:25:52.150Z,21.00
2018-01-15T01:26:52.852Z,20.00
2018-01-15T01:27:53.570Z,17.00
2018-01-15T01:28:54.286Z,23.00
2018-01-15T01:29:54.988Z,20.00
2018-01-15T01:30:55.691Z,20.00
2018-01-15T01:31:56.395Z,19.00
2018-01-15T01:32:57.098Z,18.00
2018-01-15T01:33:57.802Z,20.00
2018-01-15T01:34:58.517Z,18.00
2018-01-15T01:35:59.220Z,17.00
2018-01-15T01:36:59.926Z,19.00
2018-01-15T01:38:00.646Z,21.00
2018-01-15T01:39:01.352Z,18.00
2018-01-15T01:40:02.069Z,18.00
2018-01-15T01:41:02.773Z,19.00
2018-01-15T01:42:03.477Z,18.00
2018-01-15T01:43:04.202Z,21.00
2018-01-15T01:44:04.915Z,16.00
2018-01-15T01:45:05.620Z,18.00
2018-01-15T01:46:06.322Z,20.00
2018-01-15T01:47:07.026Z,18.00
2018-01-15T01:48:07.730Z,19.00
2018-01-15T01:49:08.433Z,18.00
2018-01-15T01:50:09.138Z,20.00
2018-01-15T01:51:09.846Z,19.00
2018-01-15T01:52:10.549Z,17.00
2018-01-15T01:53:11.253Z,20.00
2018-01-15T01:54:11.959Z,16.00
2018-01-15T01:55:12.663Z,19.00
2018-01-15T01:56:13.384Z,19.00
2018-01-15T01:57:14.088Z,18.00
2018-01-15T01:58:14.793Z,17.00
2018-01-15T01:59:15.498Z,22.00
2018-01-15T02:00:16.201Z,17.00
2018-01-15T02:01:16.905Z,21.00
2018-01-15T02:02:17.607Z,17.00
2018-01-15T02:03:18.312Z,19.00
2018-01-15T02:04:19.015Z,18.00
2018-01-15T02:05:19.733Z,19.00
2018-01-15T02:06:20.437Z,20.00
2018-01-15T02:07:21.143Z,19.00
2018-01-15T02:08:21.849Z,18.00
2018-01-15T02:09:22.552Z,21.00
2018-01-15T02:10:23.258Z,20.00
2018-01-15T02:11:23.965Z,27.00
2018-01-15T02:12:24.681Z,20.00
2018-01-15T02:13:25.385Z,16.00
2018-01-15T02:14:26.091Z,16.00
2018-01-15T02:15:26.794Z,19.00
2018-01-15T02:16:27.498Z,17.00
2018-01-15T02:17:28.216Z,21.00
2018-01-15T02:18:28.939Z,20.00
2018-01-15T02:19:29.655Z,23.00
2018-01-15T02:20:30.360Z,19.00
2018-01-15T02:21:31.065Z,20.00
2018-01-15T02:22:31.786Z,19.00
2018-01-15T02:23:32.505Z,17.00
2018-01-15T02:24:33.213Z,19.00
2018-01-15T02:25:33.916Z,18.00
2018-01-15T02:26:34.622Z,20.00
2018-01-15T02:27:35.326Z,18.00
2018-01-15T02:28:36.046Z,17.00
2018-01-15T02:29:36.752Z,20.00
2018-01-15T02:30:37.459Z,21.00
2018-01-15T02:31:38.164Z,20.00
2018-01-15T02:32:38.868Z,20.00
2018-01-15T02:33:39.586Z,19.00
2018-01-15T02:34:40.289Z,20.00
2018-01-15T02:35:41.011Z,17.00
2018-01-15T02:36:41.718Z,18.00
2018-01-15T02:37:42.422Z,20.00
2018-01-15T02:38:43.142Z,19.00
2018-01-15T02:39:43.848Z,22.00
2018-01-15T02:40:44.578Z,20.00
2018-01-15T02:41:45.288Z,19.00
2018-01-15T02:42:45.996Z,20.00
2018-01-15T02:43:46.699Z,22.00
2018-01-15T02:44:47.420Z,17.00
2018-01-15T02:45:48.141Z,17.00
2018-01-15T02:46:48.846Z,19.00
2018-01-15T02:47:49.566Z,20.00
2018-01-15T02:48:50.270Z,21.00
2018-01-15T02:49:50.976Z,22.00
2018-01-15T02:50:51.682Z,18.00
2018-01-15T02:51:52.388Z,18.00
2018-01-15T02:52:53.096Z,20.00
2018-01-15T02:53:53.799Z,19.00
2018-01-15T02:54:54.518Z,19.00
2018-01-15T02:55:55.224Z,16.00
2018-01-15T02:56:55.928Z,19.00
2018-01-15T02:57:56.650Z,18.00
2018-01-15T02:58:57.369Z,20.00
2018-01-15T02:59:58.085Z,18.00
2018-01-15T03:00:58.791Z,18.00
2018-01-15T03:01:59.497Z,17.00
2018-01-15T03:03:00.204Z,18.00
2018-01-15T03:04:00.936Z,19.00
2018-01-15T03:05:01.629Z,21.00
2018-01-15T03:06:02.346Z,20.00
2018-01-15T03:07:03.051Z,20.00
2018-01-15T03:08:03.756Z,19.00
2018-01-15T03:09:04.465Z,19.00
2018-01-15T03:10:05.171Z,19.00
2018-01-15T03:11:05.876Z,20.00
2018-01-15T03:12:06.595Z,18.00
2018-01-15T03:13:07.300Z,17.00
2018-01-15T03:14:08.004Z,20.00
2018-01-15T03:15:08.723Z,21.00
2018-01-15T03:16:09.429Z,17.00
2018-01-15T03:17:10.136Z,23.00
2018-01-15T03:18:10.855Z,18.00
2018-01-15T03:19:11.573Z,17.00
2018-01-15T03:20:12.279Z,18.00
2018-01-15T03:21:12.986Z,18.00
2018-01-15T03:22:13.692Z,22.00
2018-01-15T03:23:14.400Z,18.00
2018-01-15T03:24:15.118Z,20.00
2018-01-15T03:25:15.823Z,17.00
2018-01-15T03:26:16.530Z,18.00
2018-01-15T03:27:17.235Z,20.00
2018-01-15T03:28:17.938Z,19.00
2018-01-15T03:29:18.642Z,20.00
2018-01-15T03:30:19.348Z,19.00
2018-01-15T03:31:20.052Z,19.00
2018-01-15T03:32:20.770Z,20.00
2018-01-15T03:33:21.474Z,15.00
2018-01-15T03:34:22.180Z,19.00
2018-01-15T03:35:22.885Z,20.00
2018-01-15T03:36:23.588Z,20.00
2018-01-15T03:37:24.294Z,16.00
2018-01-15T03:38:25.011Z,20.00
2018-01-15T03:39:25.731Z,21.00
2018-01-15T03:40:26.449Z,21.00
2018-01-15T03:41:27.155Z,19.00
2018-01-15T03:42:27.862Z,20.00
2018-01-15T03:43:28.566Z,19.00
2018-01-15T03:44:29.273Z,20.00
2018-01-15T03:45:29.994Z,19.00
2018-01-15T03:46:30.700Z,21.00
2018-01-15T03:47:31.406Z,21.00
2018-01-15T03:48:32.109Z,16.00
2018-01-15T03:49:32.814Z,22.00
2018-01-15T03:50:33.520Z,19.00
2018-01-15T03:51:34.224Z,20.00
2018-01-15T03:52:34.930Z,17.00
2018-01-15T03:53:35.637Z,13.00
2018-01-15T03:54:36.345Z,21.00
2018-01-15T03:55:37.053Z,18.00
2018-01-15T03:56:37.769Z,20.00
2018-01-15T03:57:38.476Z,22.00
2018-01-15T03:58:39.182Z,18.00
2018-01-15T03:59:39.890Z,18.00
2018-01-15T04:00:40.591Z,18.00
2018-01-15T04:01:41.311Z,18.00
2018-01-15T04:02:42.015Z,16.00
2018-01-15T04:03:42.736Z,18.00
2018-01-15T04:04:43.443Z,23.00
2018-01-15T04:05:44.162Z,18.00
2018-01-15T04:06:44.883Z,19.00
2018-01-15T04:07:45.591Z,19.00
2018-01-15T04:08:46.298Z,15.00
2018-01-15T04:09:47.002Z,14.00
2018-01-15T04:10:47.705Z,22.00
2018-01-15T04:11:48.426Z,18.00
2018-01-15T04:12:49.130Z,16.00
2018-01-15T04:13:49.835Z,19.00
2018-01-15T04:14:50.539Z,17.00
2018-01-15T04:15:51.244Z,17.00
2018-01-15T04:16:51.949Z,18.00
2018-01-15T04:17:52.655Z,17.00
2018-01-15T04:18:53.375Z,20.00
2018-01-15T04:19:54.095Z,18.00
2018-01-15T04:20:54.800Z,19.00
2018-01-15T04:21:55.506Z,19.00
2018-01-15T04:22:56.212Z,19.00
2018-01-15T04:23:56.933Z,17.00
2018-01-15T04:24:57.653Z,19.00
2018-01-15T04:25:58.374Z,19.00
2018-01-15T04:26:59.080Z,18.00
2018-01-15T04:27:59.787Z,23.00
2018-01-15T04:29:00.493Z,17.00
2018-01-15T04:30:01.211Z,20.00
2018-01-15T04:31:01.917Z,19.00
2018-01-15T04:32:02.683Z,20.00
2018-01-15T04:33:03.344Z,18.00
2018-01-15T04:34:04.049Z,17.00
2018-01-15T04:35:04.753Z,18.00
2018-01-15T04:36:05.465Z,18.00
2018-01-15T04:37:06.164Z,17.00
2018-01-15T04:38:06.870Z,15.00
2018-01-15T04:39:07.576Z,19.00
2018-01-15T04:40:08.294Z,20.00
2018-01-15T04:41:09.015Z,18.00
2018-01-15T04:42:09.734Z,20.00
2018-01-15T04:43:10.439Z,18.00
2018-01-15T04:44:11.145Z,17.00
2018-01-15T04:45:11.849Z,19.00
2018-01-15T04:46:12.554Z,20.00
2018-01-15T04:47:13.259Z,17.00
2018-01-15T04:48:13.963Z,20.00
2018-01-15T04:49:14.670Z,21.00
2018-01-15T04:50:15.376Z,19.00
2018-01-15T04:51:16.083Z,20.00
2018-01-15T04:52:16.788Z,23.00
2018-01-15T04:53:17.508Z,17.00
2018-01-15T04:54:18.226Z,14.00
2018-01-15T04:55:18.934Z,21.00
2018-01-15T04:56:19.641Z,20.00
2018-01-15T04:57:20.347Z,23.00
2018-01-15T04:58:21.054Z,18.00
2018-01-15T04:59:21.758Z,19.00
2018-01-15T05:00:22.465Z,22.00
2018-01-15T05:01:23.171Z,20.00
2018-01-15T05:02:23.875Z,23.00
2018-01-15T05:03:24.594Z,20.00
2018-01-15T05:04:25.300Z,22.00
2018-01-15T05:05:26.004Z,20.00
2018-01-15T05:06:26.709Z,22.00
2018-01-15T05:07:27.415Z,19.00
2018-01-15T05:08:28.123Z,20.00
2018-01-15T05:09:28.843Z,23.00
2018-01-15T05:10:29.550Z,20.00
2018-01-15T05:11:30.269Z,19.00
2018-01-15T05:12:30.975Z,19.00
2018-01-15T05:13:31.682Z,20.00
2018-01-15T05:14:32.388Z,16.00
2018-01-15T05:15:33.094Z,19.00
2018-01-15T05:16:33.800Z,24.00
2018-01-15T05:17:34.503Z,19.00
2018-01-15T05:18:35.222Z,21.00
2018-01-15T05:19:35.929Z,17.00
2018-01-15T05:20:36.649Z,17.00
2018-01-15T05:21:37.356Z,19.00
2018-01-15T05:22:38.063Z,23.00
2018-01-15T05:23:38.782Z,19.00
2018-01-15T05:24:39.489Z,18.00
2018-01-15T05:25:40.193Z,18.00
2018-01-15T05:26:40.898Z,21.00
2018-01-15T05:27:41.620Z,21.00
2018-01-15T05:28:42.326Z,20.00
2018-01-15T05:29:43.045Z,18.00
2018-01-15T05:30:43.752Z,22.00
2018-01-15T05:31:44.458Z,19.00
2018-01-15T05:32:45.166Z,20.00
2018-01-15T05:33:45.886Z,18.00
2018-01-15T05:34:46.606Z,21.00
2018-01-15T05:35:47.312Z,19.00
2018-01-15T05:36:48.017Z,19.00
2018-01-15T05:37:48.739Z,15.00
2018-01-15T05:38:49.446Z,20.00
2018-01-15T05:39:50.152Z,20.00
2018-01-15T05:40:50.858Z,20.00
2018-01-15T05:41:51.563Z,17.00
2018-01-15T05:42:52.270Z,19.00
2018-01-15T05:43:53.006Z,22.00
2018-01-15T05:44:53.710Z,20.00
2018-01-15T05:45:54.415Z,18.00
2018-01-15T05:46:55.135Z,18.00
2018-01-15T05:47:55.839Z,22.00
2018-01-15T05:48:56.545Z,19.00
2018-01-15T05:49:57.251Z,18.00
2018-01-15T05:50:57.959Z,18.00
2018-01-15T05:51:58.663Z,15.00
2018-01-15T05:52:59.370Z,17.00
2018-01-15T05:54:00.077Z,18.00
2018-01-15T05:55:00.783Z,20.00
2018-01-15T05:56:01.490Z,21.00
2018-01-15T05:57:02.195Z,17.00
2018-01-15T05:58:02.900Z,20.00
2018-01-15T05:59:03.606Z,20.00
2018-01-15T06:00:04.313Z,20.00
2018-01-15T06:01:05.035Z,21.00
2018-01-15T06:02:05.742Z,18.00
2018-01-15T06:03:06.450Z,18.00
2018-01-15T06:04:07.159Z,18.00
2018-01-15T06:05:07.870Z,19.00
2018-01-15T06:06:08.569Z,18.00
2018-01-15T06:07:09.278Z,19.00
2018-01-15T06:08:09.983Z,20.00
2018-01-15T06:09:10.705Z,19.00
2018-01-15T06:10:11.411Z,16.00
2018-01-15T06:11:12.118Z,22.00
2018-01-15T06:12:12.823Z,20.00
2018-01-15T06:13:13.533Z,22.00
2018-01-15T06:14:14.240Z,20.00
2018-01-15T06:15:14.945Z,22.00
2018-01-15T06:16:15.666Z,19.00
2018-01-15T06:17:16.371Z,21.00
2018-01-15T06:18:17.093Z,18.00
2018-01-15T06:19:17.813Z,20.00
2018-01-15T06:20:18.533Z,18.00
2018-01-15T06:21:19.243Z,19.00
2018-01-15T06:22:19.962Z,20.00
2018-01-15T06:23:20.672Z,15.00
2018-01-15T06:24:21.374Z,20.00
2018-01-15T06:25:22.080Z,21.00
2018-01-15T06:26:22.787Z,17.00
2018-01-15T06:27:23.509Z,19.00
2018-01-15T06:28:24.229Z,20.00
2018-01-15T06:29:24.936Z,21.00
2018-01-15T06:30:25.647Z,20.00
2018-01-15T06:31:26.348Z,17.00
2018-01-15T06:32:27.071Z,18.00
2018-01-15T06:33:27.792Z,18.00
2018-01-15T06:34:28.498Z,16.00
2018-01-15T06:35:29.205Z,22.00
2018-01-15T06:36:29.929Z,17.00
2018-01-15T06:37:30.649Z,21.00
2018-01-15T06:38:31.356Z,18.00
2018-01-15T06:39:32.064Z,21.00
2018-01-15T06:40:32.770Z,20.00
2018-01-15T06:41:33.474Z,18.00
2018-01-15T06:42:34.198Z,19.00
2018-01-15T06:43:34.904Z,25.00
2018-01-15T06:44:35.609Z,21.00
2018-01-15T06:45:36.316Z,22.00
2018-01-15T06:46:37.021Z,16.00
2018-01-15T06:47:37.729Z,19.00
2018-01-15T06:48:38.437Z,18.00
2018-01-15T06:49:39.145Z,19.00
2018-01-15T06:50:39.852Z,17.00
2018-01-15T06:51:40.560Z,19.00
2018-01-15T06:52:41.287Z,17.00
2018-01-15T06:53:41.992Z,19.00
2018-01-15T06:54:42.698Z,18.00
2018-01-15T06:55:43.405Z,18.00
2018-01-15T06:56:44.128Z,18.00
2018-01-15T06:57:44.836Z,21.00
2018-01-15T06:58:45.543Z,15.00
2018-01-15T06:59:46.264Z,16.00
2018-01-15T07:00:46.972Z,21.00
2018-01-15T07:01:47.676Z,20.00
2018-01-15T07:02:48.383Z,21.00
2018-01-15T07:03:49.106Z,18.00
2018-01-15T07:04:49.810Z,16.00
2018-01-15T07:05:50.531Z,20.00
2018-01-15T07:06:51.236Z,22.00
2018-01-15T07:07:51.942Z,17.00
2018-01-15T07:08:52.648Z,17.00
2018-01-15T07:09:53.356Z,20.00
2018-01-15T07:10:54.063Z,19.00
2018-01-15T07:11:54.774Z,17.00
2018-01-15T07:12:55.481Z,16.00
2018-01-15T07:13:56.192Z,18.00
2018-01-15T07:14:56.898Z,16.00
2018-01-15T07:15:57.605Z,16.00
2018-01-15T07:16:58.313Z,23.00
2018-01-15T07:17:59.032Z,17.00
2018-01-15T07:18:59.741Z,15.00
2018-01-15T07:20:00.450Z,21.00
2018-01-15T07:21:01.159Z,18.00
2018-01-15T07:22:01.867Z,19.00
2018-01-15T07:23:02.573Z,21.00
2018-01-15T07:24:03.296Z,17.00
2018-01-15T07:25:04.007Z,20.00
2018-01-15T07:26:04.716Z,19.00
2018-01-15T07:27:05.439Z,17.00
2018-01-15T07:28:06.147Z,19.00
2018-01-15T07:29:06.856Z,15.00
2018-01-15T07:30:07.564Z,21.00
2018-01-15T07:31:08.276Z,18.00
2018-01-15T07:32:08.987Z,21.00
2018-01-15T07:33:09.694Z,15.00
2018-01-15T07:34:10.417Z,18.00
2018-01-15T07:35:11.127Z,18.00
2018-01-15T07:36:11.852Z,20.00
2018-01-15T07:37:12.559Z,21.00
2018-01-15T07:38:13.268Z,17.00
2018-01-15T07:39:13.979Z,17.00
2018-01-15T07:40:14.689Z,18.00
2018-01-15T07:41:15.402Z,16.00
2018-01-15T07:42:16.111Z,21.00
2018-01-15T07:43:16.822Z,21.00
2018-01-15T07:44:17.532Z,15.00
2018-01-15T07:45:18.242Z,19.00
2018-01-15T07:46:18.951Z,18.00
2018-01-15T07:47:19.660Z,17.00
2018-01-15T07:48:20.372Z,16.00
2018-01-15T07:49:21.083Z,15.00
2018-01-15T07:50:21.793Z,21.00
2018-01-15T07:51:22.518Z,19.00
2018-01-15T07:52:23.230Z,21.00
2018-01-15T07:53:23.941Z,20.00
2018-01-15T07:54:24.665Z,18.00
2018-01-15T07:55:25.391Z,17.00
2018-01-15T07:56:26.100Z,15.00
2018-01-15T07:57:26.810Z,17.00
2018-01-15T07:58:27.520Z,17.00
2018-01-15T07:59:28.232Z,21.00
2018-01-15T08:00:28.958Z,20.00
2018-01-15T08:01:29.667Z,19.00
2018-01-15T08:02:30.391Z,19.00
2018-01-15T08:03:31.102Z,17.00
2018-01-15T08:04:31.813Z,20.00
2018-01-15T08:05:32.538Z,18.00
2018-01-15T08:06:33.262Z,20.00
2018-01-15T08:07:33.972Z,20.00
2018-01-15T08:08:34.681Z,21.00
2018-01-15T08:09:35.408Z,21.00
2018-01-15T08:10:36.120Z,20.00
2018-01-15T08:11:36.831Z,19.00
2018-01-15T08:12:37.543Z,22.00
2018-01-15T08:13:38.256Z,15.00
2018-01-15T08:14:38.984Z,21.00
2018-01-15T08:15:39.696Z,20.00
2018-01-15T08:16:40.406Z,20.00
2018-01-15T08:17:41.134Z,18.00
2018-01-15T08:18:41.846Z,21.00
2018-01-15T08:19:42.556Z,19.00
2018-01-15T08:20:43.268Z,17.00
2018-01-15T08:21:43.979Z,16.00
2018-01-15T08:22:44.690Z,19.00
2018-01-15T08:23:45.403Z,17.00
2018-01-15T08:24:46.116Z,17.00
2018-01-15T08:25:46.826Z,18.00
2018-01-15T08:26:47.539Z,20.00
2018-01-15T08:27:48.266Z,18.00
2018-01-15T08:28:48.976Z,18.00
2018-01-15T08:29:49.688Z,18.00
2018-01-15T08:30:50.400Z,17.00
2018-01-15T08:31:51.110Z,20.00
2018-01-15T08:32:51.856Z,17.00
2018-01-15T08:33:52.549Z,18.00
2018-01-15T08:34:53.261Z,21.00
2018-01-15T08:35:53.972Z,17.00
2018-01-15T08:36:54.682Z,19.00
2018-01-15T08:37:55.396Z,15.00
2018-01-15T08:38:56.111Z,20.00
2018-01-15T08:39:56.836Z,17.00
2018-01-15T08:40:57.550Z,17.00
2018-01-15T08:41:58.262Z,17.00
2018-01-15T08:42:58.973Z,19.00
2018-01-15T08:43:59.698Z,17.00
2018-01-15T08:45:00.410Z,18.00
2018-01-15T08:46:01.157Z,18.00
2018-01-15T08:47:01.834Z,21.00
2018-01-15T08:48:02.559Z,18.00
2018-01-15T08:49:03.273Z,20.00
2018-01-15T08:50:03.984Z,20.00
2018-01-15T08:51:04.695Z,19.00
2018-01-15T08:52:05.406Z,21.00
2018-01-15T08:53:06.118Z,16.00
2018-01-15T08:54:06.829Z,18.00
2018-01-15T08:55:07.542Z,19.00
2018-01-15T08:56:08.253Z,16.00
2018-01-15T08:57:08.964Z,19.00
2018-01-15T08:58:09.676Z,20.00
2018-01-15T08:59:10.387Z,21.00
2018-01-15T09:00:11.098Z,13.00
2018-01-15T09:01:11.824Z,17.00
2018-01-15T09:02:12.522Z,17.00
2018-01-15T09:03:13.233Z,17.00
2018-01-15T09:04:13.992Z,18.00
2018-01-15T09:05:14.675Z,18.00
2018-01-15T09:06:15.386Z,19.00
2018-01-15T09:07:16.111Z,20.00
2018-01-15T09:08:16.839Z,23.00
2018-01-15T09:09:17.552Z,19.00
2018-01-15T09:10:18.262Z,18.00
2018-01-15T09:11:18.972Z,19.00
2018-01-15T09:12:19.684Z,14.00
2018-01-15T09:13:20.398Z,19.00
2018-01-15T09:14:21.111Z,18.00
2018-01-15T09:15:21.821Z,17.00
2018-01-15T09:16:22.534Z,18.00
2018-01-15T09:17:23.291Z,16.00
2018-01-15T09:18:23.974Z,19.00
2018-01-15T09:19:24.684Z,16.00
2018-01-15T09:20:25.408Z,16.00
2018-01-15T09:21:26.136Z,18.00
2018-01-15T09:22:26.848Z,17.00
2018-01-15T09:23:27.559Z,16.00
2018-01-15T09:24:28.270Z,16.00
2018-01-15T09:25:28.984Z,15.00
2018-01-15T09:26:29.695Z,17.00
2018-01-15T09:27:30.408Z,16.00
2018-01-15T09:28:31.122Z,20.00
2018-01-15T09:29:31.833Z,16.00
2018-01-15T09:30:32.548Z,16.00
2018-01-15T09:31:33.276Z,15.00
2018-01-15T09:32:33.991Z,15.00
2018-01-15T09:33:34.704Z,15.00
2018-01-15T09:34:35.420Z,15.00
2018-01-15T09:35:36.147Z,15.00
2018-01-15T09:36:36.860Z,19.00
2018-01-15T09:37:37.575Z,14.00
2018-01-15T09:38:38.292Z,12.00
2018-01-15T09:39:39.007Z,14.00
2018-01-15T09:40:39.734Z,17.00
2018-01-15T09:41:40.447Z,16.00
2018-01-15T09:42:41.160Z,17.00
2018-01-15T09:43:41.873Z,18.00
2018-01-15T09:44:42.585Z,14.00
2018-01-15T09:45:43.313Z,13.00
2018-01-15T09:46:44.027Z,19.00
2018-01-15T09:47:44.742Z,16.00
2018-01-15T09:48:45.473Z,18.00
2018-01-15T09:49:46.187Z,15.00
2018-01-15T09:50:46.916Z,16.00
2018-01-15T09:51:47.632Z,16.00
2018-01-15T09:52:48.359Z,18.00
2018-01-15T09:53:49.073Z,17.00
2018-01-15T09:54:49.787Z,17.00
2018-01-15T09:55:50.516Z,14.00
2018-01-15T09:56:51.229Z,20.00
2018-01-15T09:57:51.945Z,16.00
2018-01-15T09:58:52.673Z,15.00
2018-01-15T09:59:53.393Z,17.00
2018-01-15T10:00:54.103Z,10.00
2018-01-15T10:01:54.820Z,20.00
2018-01-15T10:02:55.530Z,17.00
2018-01-15T10:03:56.244Z,18.00
2018-01-15T10:04:56.959Z,10.00
2018-01-15T10:05:57.675Z,18.00
2018-01-15T10:06:58.389Z,16.00
2018-01-15T10:07:59.103Z,16.00
2018-01-15T10:08:59.815Z,11.00
2018-01-15T10:10:00.530Z,16.00
2018-01-15T10:11:01.260Z,17.00
2018-01-15T10:12:01.986Z,16.00
2018-01-15T10:13:02.715Z,12.00
2018-01-15T10:14:03.417Z,15.00
2018-01-15T10:15:04.132Z,15.00
2018-01-15T10:16:04.863Z,17.00
2018-01-15T10:17:05.578Z,19.00
2018-01-15T10:18:06.290Z,11.00
2018-01-15T10:19:07.005Z,17.00
2018-01-15T10:20:07.719Z,13.00
2018-01-15T10:21:08.433Z,15.00
2018-01-15T10:22:09.149Z,16.00
2018-01-15T10:23:09.863Z,16.00
2018-01-15T10:24:10.578Z,14.00
2018-01-15T10:25:11.291Z,17.00
2018-01-15T10:26:12.005Z,13.00
2018-01-15T10:27:12.744Z,14.00
2018-01-15T10:28:13.433Z,16.00
2018-01-15T10:29:14.148Z,15.00
2018-01-15T10:30:14.860Z,15.00
2018-01-15T10:31:15.574Z,11.00
2018-01-15T10:32:16.286Z,15.00
2018-01-15T10:33:17.001Z,14.00
2018-01-15T10:34:17.714Z,13.00
2018-01-15T10:35:18.440Z,14.00
2018-01-15T10:36:19.144Z,14.00
2018-01-15T10:37:19.857Z,11.00
2018-01-15T10:38:20.573Z,17.00
2018-01-15T10:39:21.285Z,14.00
2018-01-15T10:40:21.999Z,12.00
2018-01-15T10:41:22.713Z,14.00
2018-01-15T10:42:23.426Z,14.00
2018-01-15T10:43:24.153Z,14.00
2018-01-15T10:44:24.867Z,16.00
2018-01-15T10:45:25.584Z,18.00
2018-01-15T10:46:26.295Z,16.00
2018-01-15T10:47:27.009Z,14.00
2018-01-15T10:48:27.722Z,12.00
2018-01-15T10:49:28.449Z,12.00
2018-01-15T10:50:29.163Z,13.00
2018-01-15T10:51:29.879Z,15.00
2018-01-15T10:52:30.589Z,13.00
2018-01-15T10:53:31.302Z,14.00
2018-01-15T10:54:32.014Z,12.00
2018-01-15T10:55:32.743Z,12.00
2018-01-15T10:56:33.454Z,14.00
2018-01-15T10:57:34.169Z,15.00
2018-01-15T10:58:34.881Z,14.00
2018-01-15T10:59:35.594Z,16.00
2018-01-15T11:00:36.310Z,12.00
2018-01-15T11:01:37.023Z,16.00
2018-01-15T11:02:37.735Z,17.00
2018-01-15T11:03:38.449Z,15.00
2018-01-15T11:04:39.161Z,12.00
2018-01-15T11:05:39.873Z,13.00
2018-01-15T11:06:40.588Z,19.00
2018-01-15T11:07:41.301Z,12.00
2018-01-15T11:08:42.030Z,14.00
2018-01-15T11:09:42.741Z,14.00
2018-01-15T11:10:43.454Z,12.00
2018-01-15T11:11:44.172Z,11.00
2018-01-15T11:12:44.881Z,15.00
2018-01-15T11:13:45.609Z,15.00
2018-01-15T11:14:46.323Z,18.00
2018-01-15T11:15:47.038Z,16.00
2018-01-15T11:16:47.761Z,14.00
2018-01-15T11:17:48.479Z,12.00
2018-01-15T11:18:49.204Z,12.00
2018-01-15T11:19:49.907Z,15.00
2018-01-15T11:20:50.620Z,18.00
2018-01-15T11:21:51.353Z,17.00
2018-01-15T11:22:52.064Z,14.00
2018-01-15T11:23:52.778Z,12.00
2018-01-15T11:24:53.497Z,13.00
2018-01-15T11:25:54.211Z,15.00
2018-01-15T11:26:54.920Z,13.00
2018-01-15T11:27:55.635Z,15.00
2018-01-15T11:28:56.351Z,10.00
2018-01-15T11:29:57.075Z,14.00
2018-01-15T11:30:57.790Z,15.00
2018-01-15T11:31:58.517Z,13.00
2018-01-15T11:32:59.233Z,14.00
2018-01-15T11:33:59.945Z,12.00
2018-01-15T11:35:00.661Z,15.00
2018-01-15T11:36:01.375Z,16.00
2018-01-15T11:37:02.100Z,14.00
2018-01-15T11:38:02.829Z,13.00
2018-01-15T11:39:03.557Z,13.00
2018-01-15T11:40:04.270Z,11.00
2018-01-15T11:41:04.981Z,12.00
2018-01-15T11:42:05.696Z,12.00
2018-01-15T11:43:06.408Z,14.00
2018-01-15T11:44:07.119Z,13.00
2018-01-15T11:45:07.831Z,12.00
2018-01-15T11:46:08.541Z,10.00
2018-01-15T11:47:09.255Z,17.00
2018-01-15T11:48:09.966Z,11.00
2018-01-15T11:49:10.677Z,13.00
2018-01-15T11:50:11.404Z,13.00
2018-01-15T11:51:12.116Z,14.00
2018-01-15T11:52:12.828Z,12.00
2018-01-15T11:53:13.556Z,12.00
2018-01-15T11:54:14.283Z,11.00
2018-01-15T11:55:14.997Z,10.00
2018-01-15T11:56:15.718Z,14.00
2018-01-15T11:57:16.443Z,12.00
2018-01-15T11:58:17.155Z,15.00
2018-01-15T11:59:17.866Z,11.00
2018-01-15T12:00:18.579Z,14.00
2018-01-15T12:01:19.292Z,12.00
2018-01-15T12:02:20.018Z,12.00
2018-01-15T12:03:20.730Z,11.00
2018-01-15T12:04:21.442Z,14.00
2018-01-15T12:05:22.154Z,14.00
2018-01-15T12:06:22.882Z,10.00
2018-01-15T12:07:23.609Z,10.00
2018-01-15T12:08:24.325Z,13.00
2018-01-15T12:09:25.032Z,13.00
2018-01-15T12:10:25.745Z,11.00
2018-01-15T12:11:26.456Z,9.00
2018-01-15T12:12:27.221Z,12.00
2018-01-15T12:13:27.908Z,13.00
2018-01-15T12:14:28.606Z,9.00
2018-01-15T12:15:29.318Z,11.00
2018-01-15T12:16:30.031Z,13.00
2018-01-15T12:17:30.758Z,13.00
2018-01-15T12:18:31.469Z,11.00
2018-01-15T12:19:32.187Z,12.00
2018-01-15T12:20:32.890Z,11.00
2018-01-15T12:21:33.611Z,10.00
2018-01-15T12:22:34.324Z,13.00
2018-01-15T12:23:35.050Z,11.00
2018-01-15T12:24:35.773Z,11.00
2018-01-15T12:25:36.484Z,11.00
2018-01-15T12:26:37.194Z,9.00
2018-01-15T12:27:37.920Z,11.00
2018-01-15T12:28:38.631Z,10.00
2018-01-15T12:29:39.342Z,11.00
2018-01-15T12:30:40.069Z,8.00
2018-01-15T12:31:40.780Z,10.00
2018-01-15T12:32:41.489Z,11.00
2018-01-15T12:33:42.214Z,11.00
2018-01-15T12:34:42.925Z,11.00
2018-01-15T12:35:43.638Z,12.00
2018-01-15T12:36:44.352Z,13.00
2018-01-15T12:37:45.061Z,15.00
2018-01-15T12:38:45.770Z,12.00
2018-01-15T12:39:46.494Z,12.00
2018-01-15T12:40:47.204Z,9.00
2018-01-15T12:41:47.917Z,12.00
2018-01-15T12:42:48.644Z,12.00
2018-01-15T12:43:49.354Z,14.00
2018-01-15T12:44:50.064Z,11.00
2018-01-15T12:45:50.776Z,11.00
2018-01-15T12:46:51.490Z,13.00
2018-01-15T12:47:52.204Z,10.00
2018-01-15T12:48:52.915Z,11.00
2018-01-15T12:49:53.625Z,10.00
2018-01-15T12:50:54.335Z,9.00
2018-01-15T12:51:55.061Z,11.00
2018-01-15T12:52:55.772Z,11.00
2018-01-15T12:53:56.484Z,10.00
2018-01-15T12:54:57.194Z,11.00
2018-01-15T12:55:57.905Z,11.00
2018-01-15T12:56:58.616Z,11.00
2018-01-15T12:57:59.326Z,13.00
2018-01-15T12:59:00.055Z,11.00
2018-01-15T13:00:00.778Z,13.00
2018-01-15T13:01:01.487Z,7.00
2018-01-15T13:02:02.214Z,13.00